createdAt,value
2018-02-18T00:01:38.688Z,1.80
2018-02-18T00:04:06.383Z,1.78
2018-02-18T00:06:34.096Z,1.79
2018-02-18T00:09:01.798Z,1.83
2018-02-18T00:11:29.531Z,1.87
2018-02-18T00:13:57.257Z,1.98
2018-02-18T00:16:25.012Z,1.87
2018-02-18T00:18:52.667Z,1.90
2018-02-18T00:21:20.383Z,1.93
2018-02-18T00:23:48.075Z,1.96
2018-02-18T00:26:15.773Z,1.95
2018-02-18T00:28:43.517Z,1.94
2018-02-18T00:31:11.196Z,1.84
2018-02-18T00:33:38.927Z,1.87
2018-02-18T00:36:06.612Z,1.71
2018-02-18T00:38:34.340Z,1.64
2018-02-18T00:41:02.008Z,1.64
2018-02-18T00:43:29.757Z,1.71
2018-02-18T00:45:57.503Z,1.71
2018-02-18T00:48:25.216Z,1.70
2018-02-18T00:50:52.996Z,1.80
2018-02-18T00:53:20.705Z,1.77
2018-02-18T00:55:48.467Z,1.79
2018-02-18T00:58:16.269Z,1.72
2018-02-18T01:00:44.011Z,1.69
2018-02-18T01:03:11.692Z,1.73
2018-02-18T01:05:39.403Z,1.78
2018-02-18T01:08:07.085Z,1.70
2018-02-18T01:10:34.804Z,1.71
2018-02-18T01:13:02.564Z,1.69
2018-02-18T01:15:30.255Z,1.66
2018-02-18T01:17:57.938Z,1.68
2018-02-18T01:20:25.650Z,1.70
2018-02-18T01:22:53.357Z,1.65
2018-02-18T01:25:21.075Z,1.79
2018-02-18T01:27:48.785Z,1.80
2018-02-18T01:30:16.549Z,1.85
2018-02-18T01:32:44.267Z,1.77
2018-02-18T01:35:11.957Z,1.74
2018-02-18T01:37:39.678Z,1.62
2018-02-18T01:40:07.350Z,1.61
2018-02-18T01:42:35.077Z,1.61
2018-02-18T01:45:02.779Z,1.58
2018-02-18T01:47:30.561Z,1.62
2018-02-18T01:49:58.302Z,1.58
2018-02-18T01:52:26.176Z,1.50
2018-02-18T01:54:53.943Z,1.41
2018-02-18T01:57:21.598Z,1.45
2018-02-18T01:59:49.254Z,1.43
2018-02-18T02:02:16.986Z,1.44
2018-02-18T02:04:44.771Z,1.55
2018-02-18T02:07:12.468Z,1.52
2018-02-18T02:09:40.115Z,1.50
2018-02-18T02:12:07.838Z,1.43
2018-02-18T02:14:35.503Z,1.34
2018-02-18T02:17:03.227Z,1.39
2018-02-18T02:19:31.004Z,1.44
2018-02-18T02:21:58.668Z,1.48
2018-02-18T02:24:26.413Z,1.63
2018-02-18T02:26:54.134Z,1.30
2018-02-18T02:29:21.837Z,1.19
2018-02-18T02:31:49.586Z,1.17
2018-02-18T02:34:17.729Z,1.25
2018-02-18T02:36:45.627Z,1.33
2018-02-18T02:39:13.291Z,1.40
2018-02-18T02:41:41.076Z,1.47
2018-02-18T02:44:08.823Z,1.36
2018-02-18T02:46:36.490Z,1.34
2018-02-18T02:49:04.191Z,1.29
2018-02-18T02:51:31.911Z,1.31
2018-02-18T02:53:59.615Z,1.46
2018-02-18T02:56:27.329Z,1.75
2018-02-18T02:58:55.025Z,1.63
2018-02-18T03:01:22.761Z,1.32
2018-02-18T03:03:50.443Z,1.27
2018-02-18T03:06:18.100Z,1.27
2018-02-18T03:08:45.812Z,1.31
2018-02-18T03:11:13.487Z,1.35
2018-02-18T03:13:41.209Z,1.39
2018-02-18T03:16:08.925Z,1.24
2018-02-18T03:18:36.630Z,1.07
2018-02-18T03:21:04.287Z,0.94
2018-02-18T03:23:32.025Z,0.89
2018-02-18T03:25:59.693Z,0.86
2018-02-18T03:28:27.430Z,0.78
2018-02-18T03:30:55.160Z,0.95
2018-02-18T03:33:22.882Z,0.92
2018-02-18T03:35:50.564Z,1.00
2018-02-18T03:38:18.350Z,1.06
2018-02-18T03:40:46.073Z,1.09
2018-02-18T03:43:13.787Z,0.90
2018-02-18T03:45:41.499Z,0.91
2018-02-18T03:48:09.183Z,0.95
2018-02-18T03:50:36.906Z,1.02
2018-02-18T03:53:04.562Z,0.98
2018-02-18T03:55:32.268Z,0.97
2018-02-18T03:57:59.975Z,1.15
2018-02-18T04:00:28.241Z,0.86
2018-02-18T04:02:55.953Z,0.87
2018-02-18T04:05:23.618Z,0.85
2018-02-18T04:07:51.351Z,0.82
2018-02-18T04:10:19.079Z,0.79
2018-02-18T04:12:46.808Z,0.82
2018-02-18T04:15:14.541Z,0.78
2018-02-18T04:17:42.202Z,0.71
2018-02-18T04:20:09.945Z,0.74
2018-02-18T04:22:37.595Z,0.81
2018-02-18T04:25:05.337Z,0.59
2018-02-18T04:27:33.069Z,0.61
2018-02-18T04:30:00.725Z,0.68
2018-02-18T04:32:28.442Z,0.73
2018-02-18T04:34:56.103Z,0.72
2018-02-18T04:37:23.848Z,0.59
2018-02-18T04:39:51.516Z,0.62
2018-02-18T04:42:19.192Z,0.66
2018-02-18T04:44:46.908Z,0.72
2018-02-18T04:47:14.801Z,0.69
2018-02-18T04:49:42.507Z,0.73
2018-02-18T04:52:10.197Z,0.72
2018-02-18T04:54:37.913Z,0.60
2018-02-18T04:57:05.639Z,0.52
2018-02-18T04:59:33.323Z,0.45
2018-02-18T05:02:01.006Z,0.50
2018-02-18T05:04:28.743Z,0.46
2018-02-18T05:06:56.474Z,0.35
2018-02-18T05:09:24.150Z,0.38
2018-02-18T05:11:51.883Z,0.30
2018-02-18T05:14:19.533Z,0.41
2018-02-18T05:16:47.282Z,0.31
2018-02-18T05:19:15.067Z,0.36
2018-02-18T05:21:42.729Z,0.40
2018-02-18T05:24:10.490Z,0.53
2018-02-18T05:26:38.204Z,0.43
2018-02-18T05:29:05.989Z,0.44
2018-02-18T05:31:33.642Z,0.56
2018-02-18T05:34:01.380Z,0.57
2018-02-18T05:36:29.108Z,0.55
2018-02-18T05:38:56.789Z,0.62
2018-02-18T05:41:24.538Z,0.63
2018-02-18T05:43:52.231Z,0.58
2018-02-18T05:46:19.946Z,0.47
2018-02-18T05:48:47.677Z,0.59
2018-02-18T05:51:15.396Z,0.67
2018-02-18T05:53:43.137Z,0.66
2018-02-18T05:56:10.784Z,0.56
2018-02-18T05:58:38.497Z,0.64
2018-02-18T06:01:06.189Z,0.68
2018-02-18T06:03:33.910Z,0.72
2018-02-18T06:06:01.603Z,0.67
2018-02-18T06:08:29.334Z,0.68
2018-02-18T06:10:57.031Z,0.56
2018-02-18T06:13:24.825Z,0.57
2018-02-18T06:15:52.500Z,0.58
2018-02-18T06:18:20.215Z,0.64
2018-02-18T06:20:47.995Z,0.65
2018-02-18T06:23:15.754Z,0.63
2018-02-18T06:25:43.491Z,0.72
2018-02-18T06:28:11.173Z,0.79
2018-02-18T06:30:38.903Z,0.79
2018-02-18T06:33:06.606Z,0.85
2018-02-18T06:35:34.341Z,0.89
2018-02-18T06:38:02.205Z,0.91
2018-02-18T06:40:29.901Z,0.80
2018-02-18T06:42:57.683Z,0.78
2018-02-18T06:45:25.406Z,0.82
2018-02-18T06:47:53.096Z,0.91
2018-02-18T06:50:20.840Z,0.93
2018-02-18T06:52:48.540Z,1.03
2018-02-18T06:55:16.290Z,0.95
2018-02-18T06:57:44.046Z,0.92
2018-02-18T07:00:11.808Z,0.91
2018-02-18T07:02:39.506Z,0.75
2018-02-18T07:05:07.201Z,0.78
2018-02-18T07:07:34.916Z,0.83
2018-02-18T07:10:02.654Z,0.85
2018-02-18T07:12:32.017Z,0.88
2018-02-18T07:14:59.764Z,0.85
2018-02-18T07:17:27.459Z,0.90
2018-02-18T07:19:55.138Z,1.02
2018-02-18T07:22:22.941Z,0.99
2018-02-18T07:24:50.670Z,0.93
2018-02-18T07:27:18.467Z,1.02
2018-02-18T07:29:46.182Z,0.92
2018-02-18T07:32:13.917Z,0.91
2018-02-18T07:34:41.650Z,0.89
2018-02-18T07:37:09.451Z,0.92
2018-02-18T07:39:37.292Z,0.94
2018-02-18T07:42:05.158Z,0.98
2018-02-18T07:44:32.930Z,1.12
2018-02-18T07:47:00.643Z,1.28
2018-02-18T07:49:28.448Z,1.30
2018-02-18T07:51:57.035Z,1.38
2018-02-18T07:54:24.777Z,1.47
2018-02-18T07:56:52.447Z,1.60
2018-02-18T07:59:20.188Z,1.76
2018-02-18T08:01:47.981Z,1.67
2018-02-18T08:04:15.879Z,1.80
2018-02-18T08:06:43.604Z,1.91
2018-02-18T08:09:11.381Z,1.94
2018-02-18T08:11:39.178Z,1.72
2018-02-18T08:14:06.931Z,1.71
2018-02-18T08:16:34.646Z,1.74
2018-02-18T08:19:02.418Z,1.80
2018-02-18T08:21:30.343Z,2.03
2018-02-18T08:23:58.171Z,2.10
2018-02-18T08:26:25.982Z,2.22
2018-02-18T08:28:53.763Z,1.93
2018-02-18T08:31:21.604Z,1.88
2018-02-18T08:33:50.200Z,1.95
2018-02-18T08:36:18.019Z,1.67
2018-02-18T08:38:45.802Z,1.85
2018-02-18T08:41:13.527Z,1.80
2018-02-18T08:43:41.378Z,2.05
2018-02-18T08:46:09.195Z,2.01
2018-02-18T08:48:36.924Z,2.11
2018-02-18T08:51:04.690Z,2.17
2018-02-18T08:53:32.407Z,2.28
2018-02-18T08:56:00.221Z,2.52
2018-02-18T08:58:27.933Z,2.45
2018-02-18T09:00:55.870Z,2.59
2018-02-18T09:03:23.599Z,2.52
2018-02-18T09:05:51.419Z,2.23
2018-02-18T09:08:19.115Z,2.57
2018-02-18T09:10:46.865Z,2.66
2018-02-18T09:13:14.640Z,2.55
2018-02-18T09:15:42.382Z,2.79
2018-02-18T09:18:10.185Z,2.86
2018-02-18T09:20:38.987Z,3.06
2018-02-18T09:23:06.782Z,3.21
2018-02-18T09:25:34.633Z,3.35
2018-02-18T09:28:02.409Z,2.93
2018-02-18T09:30:30.424Z,3.15
2018-02-18T09:32:58.212Z,3.20
2018-02-18T09:35:26.100Z,3.77
2018-02-18T09:37:53.839Z,3.92
2018-02-18T09:40:21.694Z,3.78
2018-02-18T09:42:49.445Z,3.68
2018-02-18T09:45:17.260Z,3.87
2018-02-18T09:47:45.091Z,3.72
2018-02-18T09:50:14.081Z,3.59
2018-02-18T09:52:43.265Z,3.60
2018-02-18T09:55:13.027Z,3.31
2018-02-18T09:57:40.807Z,3.65
2018-02-18T10:00:08.588Z,3.33
2018-02-18T10:02:36.824Z,3.16
2018-02-18T10:05:04.957Z,3.35
2018-02-18T10:07:33.013Z,3.66
2018-02-18T10:10:00.941Z,3.46
2018-02-18T10:12:28.851Z,3.24
2018-02-18T10:14:56.680Z,3.29
2018-02-18T10:17:24.440Z,3.30
2018-02-18T10:19:53.314Z,3.28
2018-02-18T10:22:21.801Z,3.35
2018-02-18T10:24:49.596Z,3.51
2018-02-18T10:27:17.598Z,3.49
2018-02-18T10:29:45.393Z,3.86
2018-02-18T10:32:13.666Z,3.51
2018-02-18T10:34:42.735Z,3.71
2018-02-18T10:37:12.380Z,3.61
2018-02-18T10:39:40.749Z,3.71
2018-02-18T10:42:08.531Z,3.86
2018-02-18T10:44:36.300Z,3.46
2018-02-18T10:47:04.068Z,3.07
2018-02-18T10:49:31.887Z,3.30
2018-02-18T10:51:59.583Z,3.52
2018-02-18T10:54:27.860Z,3.39
2018-02-18T10:56:55.643Z,3.40
2018-02-18T10:59:24.308Z,3.67
2018-02-18T11:01:53.590Z,3.36
2018-02-18T11:04:21.298Z,3.92
2018-02-18T11:06:49.053Z,4.27
2018-02-18T11:09:16.803Z,4.62
2018-02-18T11:11:44.627Z,4.28
2018-02-18T11:14:12.360Z,4.42
2018-02-18T11:16:40.279Z,4.32
2018-02-18T11:19:08.175Z,4.05
2018-02-18T11:21:35.882Z,3.73
2018-02-18T11:24:03.670Z,4.22
2018-02-18T11:26:31.397Z,4.03
2018-02-18T11:28:59.169Z,3.90
2018-02-18T11:31:26.889Z,3.86
2018-02-18T11:33:54.579Z,3.67
2018-02-18T11:36:22.360Z,3.59
2018-02-18T11:38:50.139Z,3.24
2018-02-18T11:41:17.883Z,3.80
2018-02-18T11:43:45.646Z,4.09
2018-02-18T11:46:13.868Z,4.23
2018-02-18T11:48:41.696Z,4.41
2018-02-18T11:51:09.467Z,4.49
2018-02-18T11:53:37.298Z,4.50
2018-02-18T11:56:05.117Z,4.66
2018-02-18T11:58:33.596Z,3.91
2018-02-18T12:01:01.636Z,4.03
2018-02-18T12:03:30.526Z,4.44
2018-02-18T12:05:59.128Z,4.43
2018-02-18T12:08:27.256Z,4.25
2018-02-18T12:10:54.983Z,4.27
2018-02-18T12:13:22.832Z,4.24
2018-02-18T12:15:50.631Z,4.72
2018-02-18T12:18:18.394Z,4.76
2018-02-18T12:20:46.291Z,4.59
2018-02-18T12:23:14.298Z,4.46
2018-02-18T12:25:46.121Z,4.29
2018-02-18T12:28:13.962Z,4.44
2018-02-18T12:30:42.145Z,4.19
2018-02-18T12:33:10.753Z,4.07
2018-02-18T12:35:38.609Z,3.86
2018-02-18T12:38:06.997Z,3.92
2018-02-18T12:40:34.806Z,4.09
2018-02-18T12:43:02.680Z,4.06
2018-02-18T12:45:30.468Z,3.27
2018-02-18T12:47:58.265Z,3.74
2018-02-18T12:50:26.060Z,3.65
2018-02-18T12:52:53.752Z,3.29
2018-02-18T12:55:21.574Z,3.27
2018-02-18T12:57:49.622Z,3.05
2018-02-18T13:00:17.919Z,3.22
2018-02-18T13:02:45.688Z,3.02
2018-02-18T13:05:13.591Z,3.02
2018-02-18T13:07:41.727Z,3.27
2018-02-18T13:10:09.667Z,3.16
2018-02-18T13:12:37.461Z,3.39
2018-02-18T13:15:05.497Z,3.31
2018-02-18T13:17:34.197Z,3.10
2018-02-18T13:20:02.227Z,3.42
2018-02-18T13:22:30.225Z,3.49
2018-02-18T13:24:58.406Z,3.57
2018-02-18T13:27:26.472Z,3.31
2018-02-18T13:29:54.251Z,3.33
2018-02-18T13:32:22.095Z,3.58
2018-02-18T13:34:50.069Z,3.57
2018-02-18T13:37:17.869Z,3.12
2018-02-18T13:39:46.557Z,3.39
2018-02-18T13:42:14.345Z,3.41
2018-02-18T13:44:42.100Z,2.97
2018-02-18T13:47:09.887Z,3.43
2018-02-18T13:49:37.739Z,3.47
2018-02-18T13:52:05.497Z,3.52
2018-02-18T13:54:34.125Z,3.46
2018-02-18T13:57:02.050Z,3.67
2018-02-18T13:59:30.692Z,3.70
2018-02-18T14:01:59.353Z,3.89
2018-02-18T14:04:27.881Z,3.82
2018-02-18T14:06:55.592Z,3.82
2018-02-18T14:09:23.354Z,3.88
2018-02-18T14:11:51.141Z,3.85
2018-02-18T14:14:18.885Z,3.86
2018-02-18T14:16:46.722Z,3.86
2018-02-18T14:19:14.567Z,3.91
2018-02-18T14:21:42.319Z,3.79
2018-02-18T14:24:10.132Z,3.86
2018-02-18T14:26:37.877Z,3.82
2018-02-18T14:29:05.698Z,3.77
2018-02-18T14:31:33.458Z,3.84
2018-02-18T14:34:02.023Z,3.84
2018-02-18T14:36:29.786Z,3.88
2018-02-18T14:38:57.555Z,3.87
2018-02-18T14:41:37.082Z,3.97
2018-02-18T14:44:16.614Z,4.02
2018-02-18T14:46:56.585Z,3.90
2018-02-18T14:49:36.103Z,3.92
2018-02-18T14:52:16.172Z,3.94
2018-02-18T14:55:05.570Z,3.99
2018-02-18T14:57:36.084Z,4.03
2018-02-18T15:00:03.894Z,3.87
2018-02-18T15:02:31.666Z,4.03
2018-02-18T15:04:59.455Z,3.83
2018-02-18T15:07:27.218Z,3.80
2018-02-18T15:09:56.913Z,3.72
2018-02-18T15:12:26.201Z,3.46
2018-02-18T15:14:55.128Z,3.20
2018-02-18T15:17:22.998Z,3.56
2018-02-18T15:19:53.668Z,3.47
2018-02-18T15:22:22.379Z,3.60
2018-02-18T15:24:50.238Z,3.52
2018-02-18T15:27:18.284Z,3.25
2018-02-18T15:29:46.165Z,3.22
2018-02-18T15:32:14.381Z,3.15
2018-02-18T15:34:42.720Z,3.57
2018-02-18T15:37:11.541Z,3.40
2018-02-18T15:39:40.201Z,3.39
2018-02-18T15:42:08.970Z,3.35
2018-02-18T15:44:37.997Z,3.32
2018-02-18T15:47:06.268Z,3.28
2018-02-18T15:49:34.468Z,3.15
2018-02-18T15:52:03.646Z,3.21
2018-02-18T15:54:31.588Z,3.11
2018-02-18T15:56:59.552Z,3.09
2018-02-18T15:59:27.607Z,3.09
2018-02-18T16:01:55.814Z,3.00
2018-02-18T16:04:23.718Z,3.00
2018-02-18T16:06:52.849Z,2.92
2018-02-18T16:09:20.876Z,2.88
2018-02-18T16:11:49.268Z,2.82
2018-02-18T16:14:17.773Z,2.71
2018-02-18T16:16:46.256Z,2.63
2018-02-18T16:19:15.138Z,2.54
2018-02-18T16:21:43.063Z,2.59
2018-02-18T16:24:13.251Z,2.55
2018-02-18T16:26:43.010Z,2.53
2018-02-18T16:29:11.090Z,2.46
2018-02-18T16:31:40.518Z,2.44
2018-02-18T16:34:10.821Z,2.41
2018-02-18T16:36:39.472Z,2.44
2018-02-18T16:39:08.353Z,2.24
2018-02-18T16:41:37.334Z,2.17
2018-02-18T16:44:05.606Z,2.10
2018-02-18T16:46:33.791Z,2.10
2018-02-18T16:49:02.053Z,1.94
2018-02-18T16:51:30.726Z,1.89
2018-02-18T16:53:59.687Z,1.94
2018-02-18T16:56:27.544Z,1.79
2018-02-18T16:58:55.553Z,1.74
2018-02-18T17:01:24.003Z,1.86
2018-02-18T17:03:52.122Z,1.80
2018-02-18T17:06:22.674Z,1.69
2018-02-18T17:08:51.333Z,1.66
2018-02-18T17:11:19.095Z,1.66
2018-02-18T17:13:47.777Z,1.50
2018-02-18T17:16:15.498Z,1.44
2018-02-18T17:18:43.525Z,1.50
2018-02-18T17:21:11.328Z,1.43
2018-02-18T17:23:40.505Z,1.33
2018-02-18T17:26:08.550Z,1.25
2018-02-18T17:28:59.702Z,1.24
2018-02-18T17:31:30.237Z,1.14
2018-02-18T17:33:58.617Z,1.18
2018-02-18T17:36:27.865Z,1.26
2018-02-18T17:38:56.480Z,1.34
2018-02-18T17:41:26.198Z,1.28
2018-02-18T17:43:54.424Z,1.37
2018-02-18T17:46:22.363Z,1.42
2018-02-18T17:48:51.453Z,1.27
2018-02-18T17:51:19.812Z,1.32
2018-02-18T17:53:48.489Z,0.93
2018-02-18T17:56:16.479Z,0.99
2018-02-18T17:58:44.634Z,0.95
2018-02-18T18:01:12.571Z,1.05
2018-02-18T18:03:40.731Z,1.05
2018-02-18T18:06:10.150Z,1.03
2018-02-18T18:08:38.284Z,1.12
2018-02-18T18:11:07.103Z,1.10
2018-02-18T18:13:35.161Z,0.90
2018-02-18T18:16:02.907Z,0.74
2018-02-18T18:18:30.679Z,0.70
2018-02-18T18:20:58.382Z,0.70
2018-02-18T18:23:26.155Z,0.60
2018-02-18T18:25:54.096Z,0.52
2018-02-18T18:28:22.388Z,0.39
2018-02-18T18:30:50.492Z,0.41
2018-02-18T18:33:18.454Z,0.24
2018-02-18T18:35:46.236Z,0.15
2018-02-18T18:38:14.020Z,0.20
2018-02-18T18:40:42.018Z,0.22
2018-02-18T18:43:09.830Z,0.22
2018-02-18T18:45:37.643Z,0.10
2018-02-18T18:48:05.865Z,0.13
2018-02-18T18:50:33.709Z,0.10
2018-02-18T18:53:01.848Z,0.09
2018-02-18T18:55:29.770Z,0.06
2018-02-18T18:57:57.718Z,0.13
2018-02-18T19:02:59.726Z,0.15
2018-02-18T19:05:27.557Z,0.16
2018-02-18T19:07:55.450Z,0.18
2018-02-18T19:10:23.500Z,0.04
2018-02-18T19:12:51.314Z,-0.09
2018-02-18T19:15:19.168Z,-0.12
2018-02-18T19:17:48.867Z,-0.11
2018-02-18T19:20:16.672Z,-0.20
2018-02-18T19:22:44.517Z,-0.16
2018-02-18T19:25:12.483Z,-0.19
2018-02-18T19:27:40.333Z,-0.24
2018-02-18T19:30:08.336Z,-0.34
2018-02-18T19:32:36.181Z,-0.31
2018-02-18T19:35:04.854Z,-0.40
2018-02-18T19:37:32.879Z,-0.47
2018-02-18T19:40:02.767Z,-0.54
2018-02-18T19:42:30.642Z,-0.53
2018-02-18T19:44:58.468Z,-0.55
2018-02-18T19:47:26.392Z,-0.65
2018-02-18T19:49:55.786Z,-0.65
2018-02-18T19:52:26.846Z,-0.72
2018-02-18T19:55:00.223Z,-0.73
2018-02-18T19:57:28.047Z,-0.86
2018-02-18T19:59:57.087Z,-0.96
2018-02-18T20:02:25.225Z,-1.06
2018-02-18T20:04:53.248Z,-1.05
2018-02-18T20:07:22.149Z,-1.03
2018-02-18T20:09:50.158Z,-0.97
2018-02-18T20:12:18.168Z,-1.15
2018-02-18T20:14:45.970Z,-1.24
2018-02-18T20:17:15.266Z,-1.21
2018-02-18T20:19:43.347Z,-1.20
2018-02-18T20:22:11.710Z,-1.32
2018-02-18T20:24:40.097Z,-1.31
2018-02-18T20:27:09.211Z,-1.36
2018-02-18T20:29:37.139Z,-1.43
2018-02-18T20:32:05.686Z,-1.43
2018-02-18T20:34:33.920Z,-1.46
2018-02-18T20:37:02.505Z,-1.50
2018-02-18T20:39:30.343Z,-1.47
2018-02-18T20:41:58.401Z,-1.48
2018-02-18T20:44:27.942Z,-1.52
2018-02-18T20:46:56.331Z,-1.55
2018-02-18T20:49:24.378Z,-1.60
2018-02-18T20:51:52.796Z,-1.61
2018-02-18T20:54:20.729Z,-1.47
2018-02-18T20:56:49.022Z,-1.49
2018-02-18T20:59:16.887Z,-1.57
2018-02-18T21:01:44.964Z,-1.61
2018-02-18T21:04:13.081Z,-1.69
2018-02-18T21:06:40.843Z,-1.69
2018-02-18T21:09:08.906Z,-1.68
2018-02-18T21:11:36.702Z,-1.73
2018-02-18T21:14:04.627Z,-1.73
2018-02-18T21:16:32.824Z,-1.70
2018-02-18T21:19:01.306Z,-1.81
2018-02-18T21:21:29.096Z,-1.87
2018-02-18T21:23:56.910Z,-1.88
2018-02-18T21:26:24.786Z,-1.87
2018-02-18T21:28:52.567Z,-1.88
2018-02-18T21:31:20.289Z,-1.99
2018-02-18T21:33:48.288Z,-2.08
2018-02-18T21:36:15.983Z,-2.05
2018-02-18T21:38:44.960Z,-2.02
2018-02-18T21:41:12.912Z,-2.03
2018-02-18T21:43:41.360Z,-2.09
2018-02-18T21:46:09.197Z,-2.13
2018-02-18T21:48:36.875Z,-2.22
2018-02-18T21:51:04.672Z,-2.17
2018-02-18T21:53:32.353Z,-2.14
2018-02-18T21:56:00.187Z,-2.16
2018-02-18T21:58:28.745Z,-2.20
2018-02-18T22:00:56.507Z,-2.32
2018-02-18T22:03:24.407Z,-2.39
2018-02-18T22:05:52.163Z,-2.43
2018-02-18T22:08:22.177Z,-2.43
2018-02-18T22:10:49.909Z,-2.50
2018-02-18T22:13:17.975Z,-2.51
2018-02-18T22:15:45.896Z,-2.59
2018-02-18T22:18:14.347Z,-2.56
2018-02-18T22:20:42.544Z,-2.55
2018-02-18T22:23:12.112Z,-2.60
2018-02-18T22:25:40.139Z,-2.50
2018-02-18T22:28:09.140Z,-2.57
2018-02-18T22:30:37.156Z,-2.61
2018-02-18T22:33:07.863Z,-2.62
2018-02-18T22:35:37.216Z,-2.64
2018-02-18T22:38:05.160Z,-2.62
2018-02-18T22:40:33.822Z,-2.61
2018-02-18T22:43:02.960Z,-2.62
2018-02-18T22:45:32.648Z,-2.70
2018-02-18T22:48:01.613Z,-2.76
2018-02-18T22:50:29.911Z,-2.77
2018-02-18T22:52:58.646Z,-2.80
2018-02-18T22:55:29.667Z,-2.76
2018-02-18T22:57:57.444Z,-2.80
2018-02-18T23:00:25.241Z,-2.83
2018-02-18T23:02:54.304Z,-2.85
2018-02-18T23:05:27.630Z,-2.86
2018-02-18T23:07:55.984Z,-2.87
2018-02-18T23:10:25.388Z,-2.90
2018-02-18T23:12:57.755Z,-2.93
2018-02-18T23:15:27.285Z,-2.95
2018-02-18T23:17:55.830Z,-2.90
2018-02-18T23:20:27.403Z,-3.04
2018-02-18T23:22:56.853Z,-3.07
2018-02-18T23:25:25.866Z,-3.15
2018-02-18T23:28:01.139Z,-3.29
2018-02-18T23:30:30.762Z,-3.32
2018-02-18T23:33:11.644Z,-3.33
2018-02-18T23:35:49.357Z,-3.27
2018-02-18T23:38:22.354Z,-3.32
2018-02-18T23:40:51.321Z,-3.24
2018-02-18T23:43:23.310Z,-3.33
2018-02-18T23:45:51.076Z,-3.42
2018-02-18T23:48:24.183Z,-3.45
2018-02-18T23:51:11.012Z,-3.56
2018-02-18T23:58:26.685Z,-3.70
